createdAt,value
2023-03-18T00:01:30.227Z,13.27
2023-03-18T00:03:58.531Z,12.74
2023-03-18T00:06:28.748Z,13.31
2023-03-18T00:08:57.349Z,12.69
2023-03-18T00:11:27.178Z,12.70
2023-03-18T00:13:55.569Z,13.28
2023-03-18T00:16:23.995Z,13.05
2023-03-18T00:18:53.081Z,12.98
2023-03-18T00:21:21.436Z,13.46
2023-03-18T00:23:56.392Z,13.20
2023-03-18T00:26:25.064Z,12.89
2023-03-18T00:28:53.853Z,12.56
2023-03-18T00:31:22.625Z,13.08
2023-03-18T00:33:50.959Z,12.95
2023-03-18T00:36:25.595Z,12.67
2023-03-18T00:38:58.036Z,11.98
2023-03-18T00:41:28.203Z,13.23
2023-03-18T00:43:57.494Z,12.70
2023-03-18T00:46:29.275Z,12.44
2023-03-18T00:49:01.398Z,13.04
2023-03-18T00:51:33.795Z,13.32
2023-03-18T00:54:06.681Z,12.41
2023-03-18T00:56:37.633Z,13.40
2023-03-18T00:59:06.499Z,14.03
2023-03-18T01:01:36.674Z,14.43
2023-03-18T01:04:06.253Z,14.57
2023-03-18T01:06:37.485Z,14.45
2023-03-18T01:09:11.266Z,14.41
2023-03-18T01:11:39.708Z,14.48
2023-03-18T01:14:08.056Z,14.12
2023-03-18T01:16:36.416Z,13.58
2023-03-18T01:19:05.138Z,14.17
2023-03-18T01:21:33.677Z,14.48
2023-03-18T01:24:02.245Z,13.98
2023-03-18T01:26:31.980Z,13.36
2023-03-18T01:29:00.537Z,12.80
2023-03-18T01:31:29.891Z,12.94
2023-03-18T01:33:58.253Z,13.42
2023-03-18T01:36:26.644Z,13.52
2023-03-18T01:38:54.974Z,14.11
2023-03-18T01:41:23.662Z,14.25
2023-03-18T01:43:54.810Z,14.62
2023-03-18T01:46:39.705Z,13.48
2023-03-18T01:49:21.696Z,13.75
2023-03-18T01:51:55.478Z,14.17
2023-03-18T01:54:25.510Z,14.48
2023-03-18T01:56:54.198Z,14.03
2023-03-18T01:59:28.805Z,14.37
2023-03-18T02:02:06.622Z,14.49
2023-03-18T02:04:40.127Z,14.68
2023-03-18T02:07:08.926Z,14.64
2023-03-18T02:09:37.677Z,14.71
2023-03-18T02:12:08.791Z,14.46
2023-03-18T02:14:38.614Z,13.89
2023-03-18T02:17:12.567Z,13.83
2023-03-18T02:19:59.045Z,14.12
2023-03-18T02:22:33.249Z,13.91
2023-03-18T02:25:22.791Z,14.08
2023-03-18T02:27:57.131Z,13.99
2023-03-18T02:30:31.995Z,14.36
2023-03-18T02:33:01.737Z,14.25
2023-03-18T02:35:31.485Z,14.41
2023-03-18T02:37:59.878Z,14.32
2023-03-18T02:40:33.305Z,14.28
2023-03-18T02:43:21.249Z,14.58
2023-03-18T02:46:08.056Z,14.50
2023-03-18T02:48:39.828Z,14.57
2023-03-18T02:51:09.247Z,14.56
2023-03-18T02:53:38.897Z,14.58
2023-03-18T02:56:08.858Z,14.60
2023-03-18T02:58:39.330Z,14.67
2023-03-18T03:01:08.781Z,14.66
2023-03-18T03:03:38.235Z,14.65
2023-03-18T03:06:07.629Z,14.63
2023-03-18T03:08:36.749Z,14.63
2023-03-18T03:11:06.037Z,14.66
2023-03-18T03:13:34.447Z,14.32
2023-03-18T03:16:04.146Z,14.37
2023-03-18T03:18:32.523Z,14.16
2023-03-18T03:21:00.835Z,13.85
2023-03-18T03:23:29.492Z,13.84
2023-03-18T03:25:57.946Z,14.13
2023-03-18T03:28:27.120Z,14.15
2023-03-18T03:30:57.085Z,14.40
2023-03-18T03:33:27.691Z,14.47
2023-03-18T03:35:58.142Z,14.47
2023-03-18T03:38:27.528Z,14.29
2023-03-18T03:40:55.853Z,14.32
2023-03-18T03:43:24.153Z,14.36
2023-03-18T03:45:52.433Z,14.51
2023-03-18T03:48:20.767Z,14.60
2023-03-18T03:50:52.043Z,14.69
2023-03-18T03:53:21.372Z,14.70
2023-03-18T03:55:49.662Z,14.56
2023-03-18T03:58:17.980Z,14.52
2023-03-18T04:00:46.490Z,14.53
2023-03-18T04:03:14.842Z,14.64
2023-03-18T04:05:43.298Z,14.22
2023-03-18T04:08:12.968Z,14.22
2023-03-18T04:10:41.287Z,14.27
2023-03-18T04:13:10.349Z,14.48
2023-03-18T04:15:39.024Z,14.40
2023-03-18T04:18:07.819Z,14.21
2023-03-18T04:20:36.693Z,14.31
2023-03-18T04:23:07.451Z,14.17
2023-03-18T04:25:37.320Z,13.83
2023-03-18T04:28:06.128Z,14.08
2023-03-18T04:30:34.568Z,13.44
2023-03-18T04:33:03.612Z,14.02
2023-03-18T04:35:32.142Z,13.64
2023-03-18T04:38:00.697Z,13.73
2023-03-18T04:40:29.242Z,13.34
2023-03-18T04:42:58.986Z,13.39
2023-03-18T04:45:27.295Z,13.70
2023-03-18T04:47:55.635Z,12.94
2023-03-18T04:50:24.966Z,13.71
2023-03-18T04:52:53.361Z,13.94
2023-03-18T04:55:22.404Z,14.02
2023-03-18T04:57:50.831Z,13.36
2023-03-18T05:00:23.745Z,14.20
2023-03-18T05:02:52.246Z,14.55
2023-03-18T05:05:21.202Z,13.90
2023-03-18T05:07:49.543Z,13.84
2023-03-18T05:10:18.955Z,14.25
2023-03-18T05:12:47.288Z,14.44
2023-03-18T05:15:15.610Z,14.56
2023-03-18T05:17:45.407Z,14.58
2023-03-18T05:20:15.126Z,13.67
2023-03-18T05:22:43.895Z,13.86
2023-03-18T05:25:12.764Z,13.65
2023-03-18T05:27:41.857Z,13.96
2023-03-18T05:30:12.485Z,13.95
2023-03-18T05:32:41.537Z,14.06
2023-03-18T05:35:11.965Z,14.08
2023-03-18T05:37:40.318Z,14.23
2023-03-18T05:40:11.818Z,13.91
2023-03-18T05:42:53.538Z,13.63
2023-03-18T05:45:23.995Z,14.24
2023-03-18T05:47:53.022Z,14.36
2023-03-18T05:50:31.763Z,14.47
2023-03-18T05:53:00.893Z,14.42
2023-03-18T05:55:30.559Z,14.62
2023-03-18T05:58:00.471Z,14.35
2023-03-18T06:00:30.074Z,13.89
2023-03-18T06:02:59.457Z,14.28
2023-03-18T06:05:30.092Z,14.55
2023-03-18T06:07:59.529Z,14.65
2023-03-18T06:10:28.249Z,14.55
2023-03-18T06:12:56.919Z,14.52
2023-03-18T06:15:25.787Z,14.57
2023-03-18T06:17:54.352Z,14.70
2023-03-18T06:20:23.452Z,14.63
2023-03-18T06:22:53.359Z,14.70
2023-03-18T06:25:23.390Z,14.01
2023-03-18T06:27:52.377Z,13.64
2023-03-18T06:30:20.933Z,13.79
2023-03-18T06:32:49.313Z,13.84
2023-03-18T06:35:18.946Z,14.32
2023-03-18T06:37:47.429Z,14.23
2023-03-18T06:40:17.519Z,14.31
2023-03-18T06:42:46.522Z,14.38
2023-03-18T06:45:15.337Z,13.79
2023-03-18T06:47:44.057Z,14.17
2023-03-18T06:50:14.289Z,14.26
2023-03-18T06:52:43.608Z,14.05
2023-03-18T06:55:12.403Z,15.57
2023-03-18T06:57:42.065Z,16.33
2023-03-18T07:00:12.632Z,16.82
2023-03-18T07:02:42.022Z,15.68
2023-03-18T07:05:12.650Z,15.51
2023-03-18T07:07:42.196Z,16.04
2023-03-18T07:10:18.518Z,16.07
2023-03-18T07:12:49.015Z,16.11
2023-03-18T07:15:20.011Z,16.80
2023-03-18T07:17:48.659Z,17.82
2023-03-18T07:20:18.049Z,18.32
2023-03-18T07:22:48.296Z,17.14
2023-03-18T07:25:16.699Z,16.33
2023-03-18T07:27:45.630Z,16.13
2023-03-18T07:30:17.842Z,16.88
2023-03-18T07:32:47.030Z,15.58
2023-03-18T07:35:16.127Z,15.86
2023-03-18T07:37:45.040Z,15.41
2023-03-18T07:40:14.745Z,14.68
2023-03-18T07:42:43.420Z,14.96
2023-03-18T07:45:12.359Z,15.32
2023-03-18T07:47:42.262Z,14.20
2023-03-18T07:50:12.371Z,15.04
2023-03-18T07:52:40.963Z,15.04
2023-03-18T07:55:10.285Z,15.53
2023-03-18T07:57:38.687Z,15.19
2023-03-18T08:00:10.505Z,15.42
2023-03-18T08:02:38.846Z,16.11
2023-03-18T08:05:09.809Z,14.91
2023-03-18T08:07:39.286Z,15.40
2023-03-18T08:10:10.244Z,15.22
2023-03-18T08:12:52.205Z,16.20
2023-03-18T08:15:22.024Z,17.64
2023-03-18T08:17:50.710Z,18.16
2023-03-18T08:20:21.471Z,16.95
2023-03-18T08:22:50.125Z,15.52
2023-03-18T08:25:19.150Z,16.12
2023-03-18T08:27:47.485Z,17.00
2023-03-18T08:30:16.622Z,16.38
2023-03-18T08:32:45.537Z,17.68
2023-03-18T08:35:14.711Z,16.23
2023-03-18T08:37:44.376Z,16.17
2023-03-18T08:40:14.304Z,16.01
2023-03-18T08:42:42.578Z,15.71
2023-03-18T08:45:12.480Z,15.54
2023-03-18T08:47:41.480Z,16.78
2023-03-18T08:50:12.064Z,16.81
2023-03-18T08:52:41.391Z,17.39
2023-03-18T08:55:11.839Z,18.04
2023-03-18T08:57:40.156Z,17.70
2023-03-18T09:00:11.550Z,18.54
2023-03-18T09:02:40.181Z,17.53
2023-03-18T09:05:09.563Z,17.93
2023-03-18T09:07:37.903Z,17.90
2023-03-18T09:10:07.518Z,17.14
2023-03-18T09:12:37.257Z,16.78
2023-03-18T09:15:07.490Z,16.90
2023-03-18T09:17:53.511Z,16.41
2023-03-18T09:20:24.393Z,15.50
2023-03-18T09:22:54.754Z,15.02
2023-03-18T09:25:23.220Z,16.08
2023-03-18T09:27:53.020Z,17.10
2023-03-18T09:30:21.758Z,17.60
2023-03-18T09:32:50.699Z,17.95
2023-03-18T09:35:19.236Z,17.43
2023-03-18T09:37:47.725Z,16.92
2023-03-18T09:40:25.848Z,16.04
2023-03-18T09:43:08.929Z,16.19
2023-03-18T09:45:47.070Z,15.68
2023-03-18T09:48:55.571Z,16.12
2023-03-18T09:51:43.286Z,15.93
2023-03-18T09:54:20.241Z,16.35
2023-03-18T09:56:49.651Z,16.58
2023-03-18T09:59:25.510Z,16.46
2023-03-18T10:01:57.691Z,17.36
2023-03-18T10:04:31.468Z,17.39
2023-03-18T10:07:04.514Z,17.43
2023-03-18T10:09:41.024Z,18.00
2023-03-18T10:12:17.920Z,17.87
2023-03-18T10:14:53.527Z,18.48
2023-03-18T10:17:26.803Z,17.60
2023-03-18T10:20:00.730Z,17.93
2023-03-18T10:22:54.404Z,17.67
2023-03-18T10:25:30.246Z,17.90
2023-03-18T10:28:23.445Z,18.77
2023-03-18T10:31:06.370Z,18.87
2023-03-18T10:33:47.499Z,18.72
2023-03-18T10:36:22.403Z,18.12
2023-03-18T10:38:53.723Z,18.96
2023-03-18T10:41:28.755Z,18.73
2023-03-18T10:43:58.487Z,18.54
2023-03-18T10:46:28.520Z,18.05
2023-03-18T10:49:02.977Z,18.02
2023-03-18T10:51:37.642Z,18.50
2023-03-18T10:54:13.912Z,19.21
2023-03-18T10:56:42.983Z,18.86
2023-03-18T10:59:16.380Z,19.20
2023-03-18T11:01:49.886Z,18.60
2023-03-18T11:04:21.728Z,18.48
2023-03-18T11:06:53.217Z,18.16
2023-03-18T11:09:32.032Z,17.14
2023-03-18T11:12:05.837Z,18.33
2023-03-18T11:14:37.475Z,18.34
2023-03-18T11:17:20.347Z,18.64
2023-03-18T11:19:50.960Z,18.89
2023-03-18T11:22:22.568Z,18.97
2023-03-18T11:25:06.173Z,18.14
2023-03-18T11:27:41.544Z,17.93
2023-03-18T11:30:33.521Z,18.01
2023-03-18T11:33:17.673Z,18.05
2023-03-18T11:35:51.968Z,18.06
2023-03-18T11:38:27.329Z,18.03
2023-03-18T11:41:06.540Z,17.99
2023-03-18T11:43:34.932Z,17.93
2023-03-18T11:46:06.881Z,17.71
2023-03-18T11:48:38.956Z,18.54
2023-03-18T11:51:39.607Z,18.19
2023-03-18T11:54:20.410Z,18.70
2023-03-18T11:56:53.867Z,17.93
2023-03-18T11:59:33.411Z,18.87
2023-03-18T12:02:35.362Z,17.99
2023-03-18T12:05:28.438Z,18.32
2023-03-18T12:08:14.924Z,18.31
2023-03-18T12:10:49.118Z,17.48
2023-03-18T12:13:37.642Z,17.00
2023-03-18T12:16:18.762Z,16.96
2023-03-18T12:19:07.416Z,17.17
2023-03-18T12:22:06.814Z,17.09
2023-03-18T12:25:26.149Z,17.46
2023-03-18T12:28:04.353Z,17.37
2023-03-18T12:30:57.307Z,17.40
2023-03-18T12:33:44.687Z,18.08
2023-03-18T12:36:24.889Z,17.59
2023-03-18T12:39:21.341Z,17.57
2023-03-18T12:42:01.665Z,17.40
2023-03-18T12:44:52.379Z,17.49
2023-03-18T12:47:26.380Z,17.65
2023-03-18T12:50:02.022Z,17.26
2023-03-18T12:52:39.730Z,17.28
2023-03-18T12:55:18.182Z,16.96
2023-03-18T12:57:51.681Z,17.17
2023-03-18T13:00:28.965Z,16.93
2023-03-18T13:03:07.464Z,17.30
2023-03-18T13:05:46.705Z,17.30
2023-03-18T13:08:50.116Z,16.91
2023-03-18T13:14:27.322Z,17.79
2023-03-18T13:16:58.493Z,17.68
2023-03-18T13:19:27.515Z,17.58
2023-03-18T13:22:08.648Z,17.07
2023-03-18T13:25:05.980Z,16.84
2023-03-18T13:27:54.908Z,17.08
2023-03-18T13:30:39.298Z,16.60
2023-03-18T13:33:56.466Z,17.18
2023-03-18T13:37:04.129Z,16.72
2023-03-18T13:40:33.885Z,17.12
2023-03-18T13:43:04.270Z,17.31
2023-03-18T13:45:39.098Z,16.95
2023-03-18T13:48:12.140Z,17.47
2023-03-18T13:50:43.298Z,17.58
2023-03-18T13:53:26.387Z,16.58
2023-03-18T13:56:04.284Z,16.20
2023-03-18T13:58:37.367Z,16.22
2023-03-18T14:01:33.535Z,15.45
2023-03-18T14:04:20.633Z,15.63
2023-03-18T14:06:56.792Z,16.04
2023-03-18T14:09:47.323Z,15.85
2023-03-18T14:12:24.072Z,16.09
2023-03-18T14:15:02.355Z,16.92
2023-03-18T14:17:49.391Z,17.04
2023-03-18T14:20:27.807Z,16.64
2023-03-18T14:23:17.866Z,16.39
2023-03-18T14:25:54.565Z,17.30
2023-03-18T14:28:27.683Z,17.83
2023-03-18T14:31:53.859Z,18.84
2023-03-18T14:34:29.702Z,18.64
2023-03-18T14:37:27.971Z,18.75
2023-03-18T14:40:02.427Z,18.46
2023-03-18T14:42:44.422Z,18.41
2023-03-18T14:45:23.006Z,18.77
2023-03-18T14:47:53.274Z,18.88
2023-03-18T14:50:35.473Z,18.56
2023-03-18T14:53:12.048Z,18.81
2023-03-18T14:55:41.364Z,18.98
2023-03-18T14:58:18.003Z,19.02
2023-03-18T15:00:49.702Z,18.92
2023-03-18T15:03:24.361Z,18.28
2023-03-18T15:06:00.576Z,17.56
2023-03-18T15:08:46.924Z,17.10
2023-03-18T15:11:17.436Z,17.46
2023-03-18T15:13:46.518Z,17.80
2023-03-18T15:16:20.913Z,18.17
2023-03-18T15:18:54.944Z,17.82
2023-03-18T15:21:30.206Z,18.25
2023-03-18T15:24:01.988Z,17.32
2023-03-18T15:26:35.240Z,17.22
2023-03-18T15:29:25.347Z,17.34
2023-03-18T15:31:54.070Z,16.72
2023-03-18T15:34:24.534Z,16.43
2023-03-18T15:36:56.682Z,16.94
2023-03-18T15:39:33.920Z,17.09
2023-03-18T15:42:03.744Z,17.35
2023-03-18T15:44:36.161Z,17.68
2023-03-18T15:47:16.703Z,16.77
2023-03-18T15:49:54.507Z,17.19
2023-03-18T15:52:27.269Z,17.15
2023-03-18T15:54:55.666Z,16.70
2023-03-18T15:57:31.635Z,17.40
2023-03-18T16:00:00.265Z,17.62
2023-03-18T16:02:29.989Z,17.60
2023-03-18T16:05:09.414Z,17.53
2023-03-18T16:07:39.886Z,17.61
2023-03-18T16:10:10.106Z,17.22
2023-03-18T16:12:39.543Z,17.64
2023-03-18T16:15:18.898Z,16.48
2023-03-18T16:17:48.734Z,17.14
2023-03-18T16:20:20.650Z,17.41
2023-03-18T16:22:50.996Z,17.63
2023-03-18T16:25:19.487Z,17.50
2023-03-18T16:27:50.155Z,17.56
2023-03-18T16:30:22.708Z,17.80
2023-03-18T16:32:52.160Z,17.73
2023-03-18T16:35:24.639Z,17.48
2023-03-18T16:38:00.324Z,17.42
2023-03-18T16:40:30.951Z,17.58
2023-03-18T16:42:59.323Z,17.59
2023-03-18T16:45:30.854Z,17.59
2023-03-18T16:48:02.874Z,17.62
2023-03-18T16:50:37.190Z,17.66
2023-03-18T16:53:17.563Z,17.60
2023-03-18T16:55:47.393Z,17.57
2023-03-18T16:58:19.713Z,17.55
2023-03-18T17:00:49.784Z,17.71
2023-03-18T17:03:19.721Z,17.65
2023-03-18T17:05:52.102Z,17.61
2023-03-18T17:08:22.793Z,17.52
2023-03-18T17:10:53.873Z,17.51
2023-03-18T17:13:26.041Z,17.54
2023-03-18T17:15:55.160Z,17.64
2023-03-18T17:18:26.065Z,17.64
2023-03-18T17:20:54.420Z,17.62
2023-03-18T17:23:26.880Z,17.66
2023-03-18T17:25:59.218Z,17.69
2023-03-18T17:28:35.555Z,17.71
2023-03-18T17:31:04.561Z,17.67
2023-03-18T17:33:35.599Z,17.59
2023-03-18T17:36:04.869Z,17.54
2023-03-18T17:38:35.746Z,17.46
2023-03-18T17:41:07.419Z,17.48
2023-03-18T17:43:37.472Z,17.35
2023-03-18T17:46:06.833Z,17.37
2023-03-18T17:48:36.673Z,17.27
2023-03-18T17:51:08.804Z,17.22
2023-03-18T17:53:42.498Z,17.25
2023-03-18T17:56:15.894Z,17.26
2023-03-18T17:58:46.890Z,17.25
2023-03-18T18:01:19.564Z,17.18
2023-03-18T18:03:48.575Z,17.22
2023-03-18T18:06:21.129Z,17.16
2023-03-18T18:08:51.304Z,17.11
2023-03-18T18:11:23.866Z,17.15
2023-03-18T18:13:56.294Z,17.08
2023-03-18T18:16:25.062Z,17.06
2023-03-18T18:18:53.522Z,17.08
2023-03-18T18:21:25.078Z,17.01
2023-03-18T18:23:54.930Z,17.02
2023-03-18T18:26:23.243Z,17.04
2023-03-18T18:28:54.295Z,17.03
2023-03-18T18:31:24.049Z,17.01
2023-03-18T18:33:54.850Z,16.95
2023-03-18T18:36:27.992Z,16.96
2023-03-18T18:38:57.793Z,16.98
2023-03-18T18:41:27.275Z,16.97
2023-03-18T18:43:56.675Z,16.86
2023-03-18T18:46:26.421Z,16.87
2023-03-18T18:48:54.932Z,16.87
2023-03-18T18:51:25.342Z,16.83
2023-03-18T18:53:55.347Z,16.87
2023-03-18T18:56:32.242Z,16.83
2023-03-18T18:59:01.248Z,16.82
2023-03-18T19:01:29.687Z,16.81
2023-03-18T19:03:58.054Z,16.81
2023-03-18T19:06:30.416Z,16.84
2023-03-18T19:09:01.783Z,16.77
2023-03-18T19:11:31.479Z,16.73
2023-03-18T19:14:19.708Z,16.71
2023-03-18T19:16:49.228Z,16.68
2023-03-18T19:19:20.637Z,16.69
2023-03-18T19:21:50.625Z,16.69
2023-03-18T19:24:28.076Z,16.67
2023-03-18T19:27:01.497Z,16.69
2023-03-18T19:29:31.241Z,16.69
2023-03-18T19:32:01.381Z,16.69
2023-03-18T19:34:32.334Z,16.69
2023-03-18T19:37:02.783Z,16.66
2023-03-18T19:39:31.811Z,16.56
2023-03-18T19:42:01.521Z,16.58
2023-03-18T19:44:29.846Z,16.58
2023-03-18T19:47:01.127Z,16.58
2023-03-18T19:49:33.632Z,16.58
2023-03-18T19:52:02.436Z,16.53
2023-03-18T19:54:32.825Z,16.59
2023-03-18T19:57:06.873Z,16.61
2023-03-18T19:59:39.709Z,16.57
2023-03-18T20:02:24.333Z,16.55
2023-03-18T20:04:54.376Z,16.48
2023-03-18T20:07:25.628Z,16.52
2023-03-18T20:09:54.654Z,16.60
2023-03-18T20:12:32.718Z,16.44
2023-03-18T20:15:01.059Z,16.45
2023-03-18T20:17:38.240Z,16.38
2023-03-18T20:20:08.785Z,16.37
2023-03-18T20:22:40.551Z,16.43
2023-03-18T20:25:17.979Z,16.46
2023-03-18T20:27:47.724Z,16.46
2023-03-18T20:30:26.227Z,16.46
2023-03-18T20:32:55.113Z,16.34
2023-03-18T20:35:25.907Z,16.40
2023-03-18T20:37:55.562Z,16.31
2023-03-18T20:40:26.422Z,16.31
2023-03-18T20:42:56.620Z,16.34
2023-03-18T20:45:26.902Z,16.32
2023-03-18T20:47:56.702Z,16.31
2023-03-18T20:50:29.810Z,16.31
2023-03-18T20:52:58.752Z,16.20
2023-03-18T20:55:30.803Z,16.10
2023-03-18T20:58:02.159Z,16.24
2023-03-18T21:00:33.654Z,16.17
2023-03-18T21:03:03.801Z,16.21
2023-03-18T21:05:32.352Z,16.15
2023-03-18T21:08:00.976Z,16.15
2023-03-18T21:10:29.304Z,16.13
2023-03-18T21:12:57.681Z,16.16
2023-03-18T21:15:29.211Z,16.15
2023-03-18T21:17:57.529Z,16.17
2023-03-18T21:20:30.056Z,16.09
2023-03-18T21:22:58.387Z,16.08
2023-03-18T21:25:28.639Z,16.01
2023-03-18T21:27:57.858Z,15.99
2023-03-18T21:30:27.681Z,16.07
2023-03-18T21:32:56.307Z,15.99
2023-03-18T21:35:27.324Z,15.94
2023-03-18T21:37:55.661Z,15.95
2023-03-18T21:40:26.259Z,15.98
2023-03-18T21:42:54.663Z,15.81
2023-03-18T21:45:24.250Z,15.84
2023-03-18T21:47:53.997Z,15.84
2023-03-18T21:50:25.252Z,15.87
2023-03-18T21:52:54.671Z,15.84
2023-03-18T21:55:23.495Z,15.85
2023-03-18T21:57:51.812Z,15.96
2023-03-18T22:00:21.859Z,15.87
2023-03-18T22:02:50.748Z,15.89
2023-03-18T22:05:24.500Z,15.92
2023-03-18T22:07:53.155Z,15.87
2023-03-18T22:10:24.416Z,15.95
2023-03-18T22:12:52.858Z,15.96
2023-03-18T22:15:45.998Z,15.99
2023-03-18T22:18:15.995Z,16.00
2023-03-18T22:20:48.339Z,16.04
2023-03-18T22:23:26.529Z,15.95
2023-03-18T22:25:56.735Z,16.03
2023-03-18T22:28:28.109Z,16.06
2023-03-18T22:30:57.208Z,15.85
2023-03-18T22:33:29.004Z,15.91
2023-03-18T22:35:59.286Z,15.97
2023-03-18T22:38:28.249Z,15.86
2023-03-18T22:40:58.372Z,15.20
2023-03-18T22:43:32.462Z,15.46
2023-03-18T22:46:02.249Z,15.69
2023-03-18T22:48:30.741Z,15.86
2023-03-18T22:51:01.537Z,15.67
2023-03-18T22:53:33.012Z,15.07
2023-03-18T22:56:08.376Z,15.37
2023-03-18T22:58:36.738Z,15.41
2023-03-18T23:01:06.666Z,15.36
2023-03-18T23:03:40.406Z,15.69
2023-03-18T23:06:14.638Z,15.70
2023-03-18T23:08:43.012Z,15.84
2023-03-18T23:11:11.455Z,15.68
2023-03-18T23:13:41.672Z,14.78
2023-03-18T23:16:14.448Z,14.45
2023-03-18T23:18:42.803Z,14.52
2023-03-18T23:21:17.970Z,14.46
2023-03-18T23:23:46.542Z,14.82
2023-03-18T23:26:15.201Z,14.03
2023-03-18T23:28:45.265Z,13.75
2023-03-18T23:31:14.506Z,13.43
2023-03-18T23:33:43.357Z,13.89
2023-03-18T23:36:13.753Z,14.36
2023-03-18T23:38:42.137Z,14.54
2023-03-18T23:41:10.469Z,14.50
2023-03-18T23:43:38.819Z,13.93
2023-03-18T23:46:08.309Z,14.27
2023-03-18T23:48:36.927Z,14.69
2023-03-18T23:51:05.707Z,15.03
2023-03-18T23:53:35.438Z,15.11
2023-03-18T23:56:03.839Z,15.15
2023-03-18T23:58:32.130Z,15.37
